createdAt,value
2023-04-19T00:00:09.952Z,9.20
2023-04-19T00:02:38.472Z,9.00
2023-04-19T00:05:07.733Z,9.10
2023-04-19T00:07:36.287Z,9.10
2023-04-19T00:10:04.566Z,9.10
2023-04-19T00:12:32.746Z,9.10
2023-04-19T00:15:02.367Z,9.10
2023-04-19T00:17:30.604Z,9.00
2023-04-19T00:19:59.136Z,9.00
2023-04-19T00:22:27.946Z,9.10
2023-04-19T00:24:56.333Z,9.00
2023-04-19T00:27:27.508Z,9.00
2023-04-19T00:29:58.867Z,8.90
2023-04-19T00:32:38.248Z,8.90
2023-04-19T00:35:14.041Z,8.90
2023-04-19T00:37:44.070Z,8.90
2023-04-19T00:40:23.268Z,8.80
2023-04-19T00:42:53.615Z,8.80
2023-04-19T00:45:25.420Z,8.80
2023-04-19T00:48:10.596Z,8.80
2023-04-19T00:50:42.120Z,8.70
2023-04-19T00:53:12.459Z,8.70
2023-04-19T00:56:01.483Z,8.80
2023-04-19T00:58:48.209Z,8.80
2023-04-19T01:01:26.124Z,8.80
2023-04-19T01:04:02.271Z,8.70
2023-04-19T01:07:19.662Z,8.70
2023-04-19T01:09:47.387Z,8.60
2023-04-19T01:12:25.433Z,8.60
2023-04-19T01:14:58.830Z,8.60
2023-04-19T01:17:40.771Z,8.60
2023-04-19T01:20:17.368Z,8.70
2023-04-19T01:22:53.860Z,8.60
2023-04-19T01:25:37.825Z,8.40
2023-04-19T01:28:08.461Z,8.40
2023-04-19T01:30:55.264Z,8.40
2023-04-19T01:33:27.355Z,8.40
2023-04-19T01:35:58.659Z,8.40
2023-04-19T01:38:41.271Z,8.30
2023-04-19T01:41:12.174Z,8.40
2023-04-19T01:43:58.237Z,8.30
2023-04-19T01:46:29.593Z,8.30
2023-04-19T01:49:02.568Z,8.30
2023-04-19T01:52:07.736Z,8.40
2023-04-19T01:54:30.325Z,8.30
2023-04-19T01:57:04.693Z,8.20
2023-04-19T01:59:36.687Z,8.20
2023-04-19T02:02:10.571Z,8.20
2023-04-19T02:04:39.793Z,8.20
2023-04-19T02:07:11.846Z,8.10
2023-04-19T02:09:47.630Z,8.20
2023-04-19T02:12:21.036Z,8.10
2023-04-19T02:15:34.497Z,8.00
2023-04-19T02:21:16.597Z,7.80
2023-04-19T02:23:48.541Z,7.80
2023-04-19T02:26:31.060Z,7.80
2023-04-19T02:29:04.974Z,7.70
2023-04-19T02:31:35.107Z,7.80
2023-04-19T02:34:03.551Z,7.80
2023-04-19T02:36:32.060Z,7.70
2023-04-19T02:39:00.445Z,7.70
2023-04-19T02:41:30.207Z,7.70
2023-04-19T02:43:59.961Z,7.50
2023-04-19T02:46:39.303Z,7.30
2023-04-19T02:49:18.091Z,7.50
2023-04-19T02:51:57.047Z,7.40
2023-04-19T02:54:30.077Z,7.50
2023-04-19T02:57:04.623Z,7.40
2023-04-19T02:59:43.675Z,7.40
2023-04-19T03:02:14.416Z,7.30
2023-04-19T03:04:49.494Z,7.10
2023-04-19T03:07:18.399Z,7.20
2023-04-19T03:09:56.764Z,7.10
2023-04-19T03:12:40.810Z,7.00
2023-04-19T03:15:54.690Z,6.80
2023-04-19T03:18:23.195Z,6.80
2023-04-19T03:20:51.418Z,6.70
2023-04-19T03:23:19.659Z,6.60
2023-04-19T03:25:48.273Z,6.50
2023-04-19T03:28:16.514Z,6.50
2023-04-19T03:30:45.228Z,6.60
2023-04-19T03:33:14.797Z,6.50
2023-04-19T03:35:43.110Z,6.40
2023-04-19T03:38:11.675Z,6.30
2023-04-19T03:40:39.997Z,6.00
2023-04-19T03:43:08.567Z,5.90
2023-04-19T03:45:36.874Z,5.90
2023-04-19T03:48:05.550Z,5.80
2023-04-19T03:50:35.228Z,5.80
2023-04-19T03:53:05.206Z,5.60
2023-04-19T03:55:33.470Z,5.70
2023-04-19T03:58:01.846Z,5.60
2023-04-19T04:00:30.030Z,5.70
2023-04-19T04:02:58.491Z,5.60
2023-04-19T04:05:29.331Z,5.50
2023-04-19T04:07:59.103Z,5.60
2023-04-19T04:10:27.426Z,5.40
2023-04-19T04:12:55.743Z,5.40
2023-04-19T04:15:24.156Z,5.40
2023-04-19T04:17:52.368Z,5.40
2023-04-19T04:20:21.224Z,5.50
2023-04-19T04:22:49.662Z,5.50
2023-04-19T04:25:24.782Z,5.40
2023-04-19T04:28:04.343Z,5.40
2023-04-19T04:30:40.393Z,5.30
2023-04-19T04:33:11.967Z,5.30
2023-04-19T04:35:41.558Z,5.30
2023-04-19T04:38:21.584Z,5.20
2023-04-19T04:40:54.996Z,5.30
2023-04-19T04:43:24.023Z,5.30
2023-04-19T04:45:55.767Z,5.30
2023-04-19T04:48:24.100Z,5.20
2023-04-19T04:50:52.845Z,5.40
2023-04-19T04:53:21.351Z,5.20
2023-04-19T04:55:49.532Z,5.10
2023-04-19T04:58:20.459Z,5.10
2023-04-19T05:00:49.547Z,5.10
2023-04-19T05:03:18.004Z,5.10
2023-04-19T05:05:46.497Z,5.20
2023-04-19T05:08:14.914Z,5.20
2023-04-19T05:10:43.110Z,5.10
2023-04-19T05:13:12.169Z,5.00
2023-04-19T05:15:41.771Z,5.10
2023-04-19T05:18:10.551Z,5.10
2023-04-19T05:20:38.777Z,5.10
2023-04-19T05:23:07.005Z,5.00
2023-04-19T05:25:35.736Z,5.10
2023-04-19T05:28:04.746Z,5.20
2023-04-19T05:30:33.057Z,5.10
2023-04-19T05:33:03.268Z,5.00
2023-04-19T05:35:31.528Z,5.10
2023-04-19T05:38:02.941Z,5.00
2023-04-19T05:40:31.157Z,5.10
2023-04-19T05:43:02.566Z,5.10
2023-04-19T05:45:31.387Z,5.20
2023-04-19T05:47:59.700Z,5.30
2023-04-19T05:50:29.890Z,5.20
2023-04-19T05:52:58.356Z,5.30
2023-04-19T05:55:27.018Z,5.60
2023-04-19T05:57:55.675Z,5.80
2023-04-19T06:00:24.615Z,5.80
2023-04-19T06:02:52.839Z,6.10
2023-04-19T06:05:21.563Z,6.30
2023-04-19T06:07:55.700Z,6.20
2023-04-19T06:10:40.363Z,6.50
2023-04-19T06:13:18.459Z,6.60
2023-04-19T06:15:48.914Z,6.70
2023-04-19T06:18:19.592Z,6.70
2023-04-19T06:20:50.124Z,6.90
2023-04-19T06:23:19.864Z,7.10
2023-04-19T06:25:48.969Z,7.20
2023-04-19T06:28:17.444Z,7.20
2023-04-19T06:30:45.768Z,7.20
2023-04-19T06:33:14.011Z,7.30
2023-04-19T06:35:42.721Z,7.30
2023-04-19T06:38:14.130Z,7.40
2023-04-19T06:40:43.690Z,7.70
2023-04-19T06:43:12.442Z,7.70
2023-04-19T06:45:41.696Z,7.70
2023-04-19T06:48:10.122Z,8.00
2023-04-19T06:50:38.809Z,8.00
2023-04-19T06:53:07.049Z,8.10
2023-04-19T06:55:35.686Z,8.60
2023-04-19T06:58:07.794Z,9.00
2023-04-19T07:00:36.560Z,9.10
2023-04-19T07:03:06.879Z,9.40
2023-04-19T07:05:37.666Z,9.10
2023-04-19T07:08:06.291Z,9.30
2023-04-19T07:10:34.796Z,9.70
2023-04-19T07:13:03.306Z,9.90
2023-04-19T07:15:33.586Z,9.80
2023-04-19T07:18:01.905Z,9.90
2023-04-19T07:20:33.091Z,9.80
2023-04-19T07:23:01.404Z,10.00
2023-04-19T07:25:29.609Z,10.50
2023-04-19T07:27:58.336Z,10.90
2023-04-19T07:30:26.779Z,11.40
2023-04-19T07:32:57.595Z,11.30
2023-04-19T07:35:26.228Z,11.80
2023-04-19T07:37:57.089Z,11.70
2023-04-19T07:40:25.365Z,12.40
2023-04-19T07:42:56.862Z,12.80
2023-04-19T07:45:25.223Z,12.30
2023-04-19T07:47:53.462Z,12.50
2023-04-19T07:50:23.747Z,12.80
2023-04-19T07:52:52.344Z,13.20
2023-04-19T07:55:20.888Z,14.10
2023-04-19T07:57:49.223Z,14.40
2023-04-19T08:00:18.604Z,15.10
2023-04-19T08:02:47.286Z,14.50
2023-04-19T08:05:17.703Z,15.50
2023-04-19T08:07:48.026Z,16.20
2023-04-19T08:10:16.704Z,17.00
2023-04-19T08:13:01.056Z,16.70
2023-04-19T08:18:07.170Z,17.10
2023-04-19T08:20:36.859Z,17.10
2023-04-19T08:23:20.468Z,18.40
2023-04-19T08:25:57.434Z,18.10
2023-04-19T08:28:26.635Z,18.40
2023-04-19T08:30:57.258Z,18.30
2023-04-19T08:33:28.599Z,17.30
2023-04-19T08:35:59.816Z,17.60
2023-04-19T08:38:36.797Z,18.60
2023-04-19T08:41:05.461Z,18.30
2023-04-19T08:43:39.899Z,18.40
2023-04-19T08:46:10.369Z,18.90
2023-04-19T08:48:39.128Z,19.00
2023-04-19T08:51:08.310Z,18.70
2023-04-19T08:53:41.597Z,18.70
2023-04-19T08:56:21.046Z,19.10
2023-04-19T08:59:11.746Z,19.30
2023-04-19T09:01:45.045Z,19.40
2023-04-19T09:04:36.352Z,19.20
2023-04-19T09:07:06.434Z,19.30
2023-04-19T09:09:43.093Z,18.90
2023-04-19T09:12:20.198Z,18.50
2023-04-19T09:15:01.364Z,18.30
2023-04-19T09:17:31.295Z,17.70
2023-04-19T09:19:59.966Z,16.90
2023-04-19T09:22:28.642Z,17.70
2023-04-19T09:27:33.293Z,18.10
2023-04-19T09:30:02.884Z,17.90
2023-04-19T09:32:46.718Z,18.50
2023-04-19T09:35:15.128Z,18.70
2023-04-19T09:40:27.879Z,19.00
2023-04-19T09:45:30.575Z,19.60
2023-04-19T09:48:04.325Z,19.40
2023-04-19T09:50:34.235Z,19.10
2023-04-19T09:53:12.013Z,19.70
2023-04-19T09:55:57.170Z,19.50
2023-04-19T09:58:38.171Z,19.50
2023-04-19T10:01:17.328Z,20.30
2023-04-19T10:03:48.942Z,20.20
2023-04-19T10:08:51.842Z,19.00
2023-04-19T10:11:33.941Z,19.30
2023-04-19T10:14:05.203Z,19.10
2023-04-19T10:16:34.384Z,19.10
2023-04-19T10:19:07.663Z,19.90
2023-04-19T10:21:37.352Z,19.30
2023-04-19T10:24:06.715Z,19.40
2023-04-19T10:27:11.187Z,19.10
2023-04-19T10:30:00.018Z,19.40
2023-04-19T10:32:29.641Z,19.50
2023-04-19T10:35:04.904Z,19.60
2023-04-19T10:37:34.003Z,19.40
2023-04-19T10:40:02.351Z,19.50
2023-04-19T10:43:04.119Z,19.50
2023-04-19T10:45:38.484Z,18.60
2023-04-19T10:48:07.018Z,18.40
2023-04-19T10:50:59.499Z,18.80
2023-04-19T10:53:59.781Z,18.50
2023-04-19T10:57:11.640Z,18.90
2023-04-19T10:59:42.971Z,18.90
2023-04-19T11:02:32.624Z,19.30
2023-04-19T11:05:04.636Z,19.20
2023-04-19T11:07:44.091Z,19.00
2023-04-19T11:10:12.838Z,19.30
2023-04-19T11:12:45.867Z,19.40
2023-04-19T11:15:14.347Z,19.10
2023-04-19T11:17:44.216Z,19.30
2023-04-19T11:20:14.730Z,19.50
2023-04-19T11:22:44.399Z,19.80
2023-04-19T11:25:13.906Z,20.10
2023-04-19T11:27:42.950Z,20.00
2023-04-19T11:30:15.010Z,19.70
2023-04-19T11:33:25.766Z,19.50
2023-04-19T11:35:55.356Z,20.50
2023-04-19T11:38:24.117Z,20.20
2023-04-19T11:41:00.243Z,20.30
2023-04-19T11:43:34.623Z,20.30
2023-04-19T11:46:07.184Z,19.20
2023-04-19T11:48:35.966Z,19.50
2023-04-19T11:51:06.106Z,20.30
2023-04-19T11:53:35.101Z,20.20
2023-04-19T11:56:06.995Z,20.20
2023-04-19T11:58:39.766Z,20.00
2023-04-19T12:01:09.774Z,20.20
2023-04-19T12:03:43.406Z,19.70
2023-04-19T12:06:15.039Z,19.80
2023-04-19T12:08:45.682Z,19.60
2023-04-19T12:11:14.952Z,19.60
2023-04-19T12:13:44.741Z,19.30
2023-04-19T12:16:16.515Z,19.00
2023-04-19T12:18:46.658Z,19.70
2023-04-19T12:21:27.425Z,19.40
2023-04-19T12:23:57.659Z,19.10
2023-04-19T12:26:26.957Z,18.60
2023-04-19T12:28:55.631Z,18.30
2023-04-19T12:31:23.861Z,18.10
2023-04-19T12:33:53.103Z,18.20
2023-04-19T12:36:31.157Z,17.80
2023-04-19T12:39:00.183Z,17.80
2023-04-19T12:41:28.647Z,18.10
2023-04-19T12:43:57.214Z,17.90
2023-04-19T12:46:28.526Z,17.70
2023-04-19T12:48:56.844Z,15.90
2023-04-19T12:51:25.372Z,15.60
2023-04-19T12:53:55.590Z,15.50
2023-04-19T12:56:25.116Z,15.50
2023-04-19T12:58:53.814Z,15.60
2023-04-19T13:01:22.010Z,15.80
2023-04-19T13:03:50.399Z,15.30
2023-04-19T13:06:19.313Z,14.80
2023-04-19T13:08:48.074Z,14.70
2023-04-19T13:11:23.494Z,14.40
2023-04-19T13:13:53.577Z,14.20
2023-04-19T13:16:22.566Z,14.30
2023-04-19T13:18:52.578Z,14.40
2023-04-19T13:21:21.109Z,14.70
2023-04-19T13:23:49.749Z,14.90
2023-04-19T13:26:19.427Z,14.70
2023-04-19T13:28:47.657Z,14.40
2023-04-19T13:31:16.170Z,14.20
2023-04-19T13:33:44.614Z,14.10
2023-04-19T13:36:12.853Z,14.20
2023-04-19T13:38:41.135Z,14.20
2023-04-19T13:41:10.110Z,14.00
2023-04-19T13:43:39.940Z,14.10
2023-04-19T13:46:11.199Z,14.50
2023-04-19T13:48:39.564Z,14.70
2023-04-19T13:51:08.133Z,14.70
2023-04-19T13:53:36.560Z,14.40
2023-04-19T13:56:06.445Z,14.50
2023-04-19T13:58:35.379Z,14.70
2023-04-19T14:01:05.466Z,14.60
2023-04-19T14:03:33.902Z,14.80
2023-04-19T14:06:02.177Z,15.00
2023-04-19T14:08:30.334Z,14.90
2023-04-19T14:10:58.476Z,14.70
2023-04-19T14:13:27.028Z,14.70
2023-04-19T14:15:55.342Z,14.40
2023-04-19T14:18:24.965Z,14.30
2023-04-19T14:20:53.611Z,14.20
2023-04-19T14:23:21.894Z,13.90
2023-04-19T14:25:50.243Z,13.70
2023-04-19T14:28:18.568Z,13.80
2023-04-19T14:30:46.828Z,13.30
2023-04-19T14:33:15.478Z,13.40
2023-04-19T14:35:45.916Z,13.60
2023-04-19T14:38:14.058Z,13.80
2023-04-19T14:40:42.358Z,14.00
2023-04-19T14:43:12.639Z,14.10
2023-04-19T14:45:40.852Z,14.00
2023-04-19T14:48:09.264Z,13.70
2023-04-19T14:50:37.546Z,13.50
2023-04-19T14:53:07.064Z,13.20
2023-04-19T14:55:35.484Z,13.20
2023-04-19T14:58:03.726Z,13.20
2023-04-19T15:00:32.074Z,13.00
2023-04-19T15:03:01.333Z,13.10
2023-04-19T15:05:29.927Z,13.20
2023-04-19T15:07:58.222Z,13.20
2023-04-19T15:10:27.804Z,13.10
2023-04-19T15:12:56.680Z,13.10
2023-04-19T15:15:24.938Z,12.90
2023-04-19T15:17:53.145Z,12.80
2023-04-19T15:20:21.428Z,12.80
2023-04-19T15:22:55.581Z,12.60
2023-04-19T15:25:23.835Z,12.50
2023-04-19T15:27:53.661Z,12.30
2023-04-19T15:30:21.971Z,12.00
2023-04-19T15:32:50.267Z,12.10
2023-04-19T15:35:18.730Z,12.10
2023-04-19T15:37:48.694Z,12.20
2023-04-19T15:40:17.439Z,12.30
2023-04-19T15:42:45.837Z,12.50
2023-04-19T15:45:28.736Z,12.50
2023-04-19T15:47:56.857Z,12.50
2023-04-19T15:50:25.815Z,12.50
2023-04-19T15:52:54.015Z,12.30
2023-04-19T15:55:22.096Z,12.30
2023-04-19T15:57:50.753Z,12.10
2023-04-19T16:00:21.705Z,12.00
2023-04-19T16:02:50.412Z,11.90
2023-04-19T16:05:18.913Z,11.80
2023-04-19T16:07:47.515Z,11.80
2023-04-19T16:10:16.245Z,11.70
2023-04-19T16:12:46.049Z,11.80
2023-04-19T16:15:14.268Z,11.60
2023-04-19T16:17:43.907Z,11.40
2023-04-19T16:20:13.195Z,11.30
2023-04-19T16:22:44.400Z,11.30
2023-04-19T16:25:14.262Z,11.50
2023-04-19T16:27:45.122Z,11.50
2023-04-19T16:30:15.933Z,11.60
2023-04-19T16:32:45.453Z,11.50
2023-04-19T16:35:13.754Z,11.40
2023-04-19T16:37:42.045Z,11.50
2023-04-19T16:40:12.084Z,11.40
2023-04-19T16:42:41.174Z,11.40
2023-04-19T16:45:10.167Z,11.50
2023-04-19T16:47:38.809Z,11.30
2023-04-19T16:50:09.490Z,11.30
2023-04-19T16:52:37.680Z,11.30
2023-04-19T16:55:06.949Z,11.10
2023-04-19T16:57:35.276Z,10.90
2023-04-19T17:00:05.558Z,10.90
2023-04-19T17:02:34.384Z,11.00
2023-04-19T17:05:03.597Z,11.00
2023-04-19T17:07:33.520Z,11.00
2023-04-19T17:10:01.793Z,11.00
2023-04-19T17:12:30.594Z,10.80
2023-04-19T17:14:59.913Z,10.80
2023-04-19T17:17:28.093Z,10.70
2023-04-19T17:19:56.928Z,10.60
2023-04-19T17:22:25.105Z,10.60
2023-04-19T17:24:57.281Z,10.50
2023-04-19T17:27:25.405Z,10.50
2023-04-19T17:29:53.446Z,10.50
2023-04-19T17:32:21.621Z,10.50
2023-04-19T17:34:49.973Z,10.50
2023-04-19T17:37:18.443Z,10.50
2023-04-19T17:39:47.233Z,10.50
2023-04-19T17:42:17.034Z,10.50
2023-04-19T17:44:45.487Z,10.50
2023-04-19T17:47:13.712Z,10.50
2023-04-19T17:49:46.123Z,10.30
2023-04-19T17:52:14.752Z,10.20
2023-04-19T17:54:42.870Z,10.10
2023-04-19T17:57:11.049Z,10.00
2023-04-19T17:59:40.606Z,9.90
2023-04-19T18:02:10.686Z,9.90
2023-04-19T18:04:39.652Z,9.90
2023-04-19T18:07:07.883Z,9.80
2023-04-19T18:09:36.140Z,9.80
2023-04-19T18:12:04.951Z,9.70
2023-04-19T18:14:33.581Z,9.70
2023-04-19T18:17:05.531Z,9.60
2023-04-19T18:19:33.931Z,9.60
2023-04-19T18:22:02.422Z,9.70
2023-04-19T18:24:30.677Z,9.40
2023-04-19T18:26:59.812Z,9.50
2023-04-19T18:29:28.303Z,9.30
2023-04-19T18:31:56.571Z,9.00
2023-04-19T18:34:26.241Z,9.00
2023-04-19T18:37:01.345Z,9.00
2023-04-19T18:39:30.211Z,9.10
2023-04-19T18:41:58.551Z,9.30
2023-04-19T18:44:49.549Z,9.20
2023-04-19T18:47:15.548Z,9.20
2023-04-19T18:49:55.896Z,9.30
2023-04-19T18:52:31.416Z,9.30
2023-04-19T18:54:59.764Z,9.30
2023-04-19T18:57:28.216Z,9.20
2023-04-19T18:59:57.283Z,9.30
2023-04-19T19:02:26.175Z,9.30
2023-04-19T19:05:01.313Z,9.20
2023-04-19T19:10:06.332Z,9.00
2023-04-19T19:12:45.141Z,9.10
2023-04-19T19:15:14.218Z,9.20
2023-04-19T19:17:43.232Z,9.10
2023-04-19T19:20:13.425Z,9.10
2023-04-19T19:22:41.613Z,9.10
2023-04-19T19:25:11.744Z,9.10
2023-04-19T19:27:40.100Z,8.90
2023-04-19T19:30:09.435Z,8.90
2023-04-19T19:32:37.768Z,8.80
2023-04-19T19:35:08.582Z,8.80
2023-04-19T19:37:38.968Z,8.80
2023-04-19T19:40:10.996Z,8.90
2023-04-19T19:42:40.578Z,8.90
2023-04-19T19:45:10.330Z,8.70
2023-04-19T19:47:45.393Z,8.60
2023-04-19T19:50:57.558Z,8.50
2023-04-19T19:53:04.153Z,8.60
2023-04-19T19:55:32.766Z,8.40
2023-04-19T19:58:32.724Z,8.50
2023-04-19T20:03:28.820Z,8.40
2023-04-19T20:08:44.206Z,8.50
2023-04-19T20:11:12.954Z,8.40
2023-04-19T20:13:41.484Z,8.30
2023-04-19T20:16:10.104Z,8.40
2023-04-19T20:18:39.186Z,8.40
2023-04-19T20:21:07.675Z,8.30
2023-04-19T20:23:40.710Z,8.40
2023-04-19T20:26:09.091Z,8.30
2023-04-19T20:28:37.466Z,8.40
2023-04-19T20:31:06.085Z,8.40
2023-04-19T20:33:34.304Z,8.40
2023-04-19T20:36:03.712Z,8.30
2023-04-19T20:38:34.593Z,8.30
2023-04-19T20:41:04.313Z,8.20
2023-04-19T20:43:32.962Z,8.20
2023-04-19T20:46:01.361Z,8.20
2023-04-19T20:48:35.818Z,8.20
2023-04-19T20:51:04.231Z,8.10
2023-04-19T20:53:32.495Z,8.00
2023-04-19T20:56:02.717Z,8.00
2023-04-19T20:58:33.830Z,7.80
2023-04-19T21:01:02.326Z,7.60
2023-04-19T21:03:30.790Z,7.60
2023-04-19T21:05:59.074Z,7.40
2023-04-19T21:08:33.763Z,7.40
2023-04-19T21:11:02.119Z,7.40
2023-04-19T21:13:30.394Z,7.30
2023-04-19T21:16:00.079Z,7.10
2023-04-19T21:18:30.152Z,7.10
2023-04-19T21:20:58.843Z,7.10
2023-04-19T21:23:27.182Z,7.00
2023-04-19T21:25:55.391Z,6.90
2023-04-19T21:28:24.916Z,6.90
2023-04-19T21:30:58.667Z,6.80
2023-04-19T21:33:28.539Z,6.60
2023-04-19T21:35:57.247Z,6.40
2023-04-19T21:38:25.583Z,6.30
2023-04-19T21:40:53.821Z,6.20
2023-04-19T21:43:22.598Z,6.10
2023-04-19T21:45:50.809Z,6.10
2023-04-19T21:48:19.107Z,6.10
2023-04-19T21:50:48.716Z,6.20
2023-04-19T21:53:17.007Z,6.00
2023-04-19T21:55:45.477Z,6.10
2023-04-19T21:58:13.784Z,6.00
2023-04-19T22:00:42.283Z,5.90
2023-04-19T22:03:10.786Z,5.90
2023-04-19T22:05:39.204Z,6.00
2023-04-19T22:08:08.873Z,6.00
2023-04-19T22:10:37.178Z,6.00
2023-04-19T22:13:05.810Z,5.90
2023-04-19T22:15:34.169Z,5.90
2023-04-19T22:18:04.789Z,5.90
2023-04-19T22:20:33.760Z,5.90
2023-04-19T22:23:02.589Z,6.00
2023-04-19T22:25:32.176Z,5.90
2023-04-19T22:28:00.504Z,5.80
2023-04-19T22:30:28.824Z,5.80
2023-04-19T22:32:57.069Z,5.80
2023-04-19T22:35:25.298Z,5.80
2023-04-19T22:37:53.519Z,6.00
2023-04-19T22:40:22.047Z,6.00
2023-04-19T22:42:51.693Z,5.90
2023-04-19T22:45:20.069Z,5.70
2023-04-19T22:47:48.819Z,5.60
2023-04-19T22:50:17.345Z,5.70
2023-04-19T22:52:45.668Z,5.90
2023-04-19T22:55:13.961Z,5.70
2023-04-19T22:57:43.176Z,5.70
2023-04-19T23:00:13.878Z,5.80
